createdAt,value
2019-03-26T00:02:04.330Z,4.02
2019-03-26T00:04:37.047Z,3.77
2019-03-26T00:07:09.739Z,3.74
2019-03-26T00:09:42.405Z,3.59
2019-03-26T00:12:15.051Z,3.49
2019-03-26T00:14:47.747Z,3.46
2019-03-26T00:17:20.353Z,3.28
2019-03-26T00:19:53.141Z,3.18
2019-03-26T00:22:25.892Z,3.00
2019-03-26T00:24:58.551Z,2.90
2019-03-26T00:27:31.218Z,3.08
2019-03-26T00:30:04.022Z,3.16
2019-03-26T00:32:36.723Z,3.15
2019-03-26T00:35:10.333Z,3.12
2019-03-26T00:37:42.985Z,3.14
2019-03-26T00:40:16.427Z,3.10
2019-03-26T00:42:49.113Z,3.07
2019-03-26T00:45:21.819Z,3.25
2019-03-26T00:47:54.422Z,3.28
2019-03-26T00:50:27.138Z,3.42
2019-03-26T00:52:59.911Z,3.48
2019-03-26T00:55:32.637Z,3.48
2019-03-26T00:58:05.331Z,3.47
2019-03-26T01:00:45.245Z,3.48
2019-03-26T01:03:18.066Z,3.49
2019-03-26T01:05:50.847Z,3.31
2019-03-26T01:12:31.301Z,2.97
2019-03-26T01:19:20.965Z,2.84
2019-03-26T01:21:54.988Z,2.86
2019-03-26T01:24:28.511Z,2.81
2019-03-26T01:27:01.975Z,2.74
2019-03-26T01:29:34.946Z,2.71
2019-03-26T01:32:13.731Z,2.58
2019-03-26T01:34:50.203Z,2.58
2019-03-26T01:37:26.516Z,2.48
2019-03-26T01:40:12.137Z,2.33
2019-03-26T01:42:50.004Z,2.21
2019-03-26T01:45:25.282Z,2.00
2019-03-26T01:48:03.122Z,1.82
2019-03-26T01:50:36.927Z,1.60
2019-03-26T01:53:13.154Z,1.47
2019-03-26T01:55:50.648Z,1.35
2019-03-26T01:58:26.891Z,1.26
2019-03-26T02:01:02.550Z,1.19
2019-03-26T02:03:38.049Z,1.19
2019-03-26T02:06:14.618Z,1.16
2019-03-26T02:08:53.011Z,1.09
2019-03-26T02:11:29.042Z,1.05
2019-03-26T02:14:06.047Z,1.18
2019-03-26T02:16:41.858Z,1.23
2019-03-26T02:19:16.091Z,1.40
2019-03-26T02:21:49.400Z,1.54
2019-03-26T02:24:22.783Z,1.58
2019-03-26T02:26:57.061Z,1.58
2019-03-26T02:29:31.360Z,1.52
2019-03-26T02:32:07.256Z,1.60
2019-03-26T02:34:41.809Z,1.71
2019-03-26T02:37:16.614Z,1.77
2019-03-26T02:39:50.609Z,1.94
2019-03-26T02:42:28.196Z,1.94
2019-03-26T02:45:04.433Z,1.95
2019-03-26T02:47:43.089Z,2.11
2019-03-26T02:50:21.148Z,2.16
2019-03-26T02:53:08.894Z,2.21
2019-03-26T03:03:10.894Z,2.47
2019-03-26T03:05:44.302Z,2.57
2019-03-26T03:08:18.081Z,2.65
2019-03-26T03:10:51.714Z,2.73
2019-03-26T03:13:25.276Z,2.78
2019-03-26T03:15:58.878Z,2.84
2019-03-26T03:18:32.175Z,2.91
2019-03-26T03:21:05.411Z,2.95
2019-03-26T03:23:39.611Z,2.99
2019-03-26T03:26:13.069Z,3.08
2019-03-26T03:28:46.506Z,3.10
2019-03-26T03:31:20.315Z,3.06
2019-03-26T03:33:53.535Z,2.98
2019-03-26T03:36:27.187Z,2.83
2019-03-26T03:39:01.822Z,2.78
2019-03-26T03:41:35.837Z,2.72
2019-03-26T03:44:10.626Z,2.65
2019-03-26T03:46:48.067Z,2.71
2019-03-26T03:49:26.753Z,2.80
2019-03-26T03:52:01.395Z,2.83
2019-03-26T03:54:37.937Z,2.83
2019-03-26T03:57:13.145Z,2.80
2019-03-26T03:59:48.281Z,2.77
2019-03-26T04:02:22.859Z,2.58
2019-03-26T04:04:55.633Z,2.41
2019-03-26T04:07:30.189Z,2.18
2019-03-26T04:10:02.858Z,2.04
2019-03-26T04:12:35.600Z,1.93
2019-03-26T04:15:08.966Z,1.81
2019-03-26T04:17:41.668Z,1.71
2019-03-26T04:20:14.419Z,1.65
2019-03-26T04:22:47.231Z,1.63
2019-03-26T04:25:19.843Z,1.56
2019-03-26T04:27:53.640Z,1.50
2019-03-26T04:30:36.280Z,1.36
2019-03-26T04:33:09.014Z,1.27
2019-03-26T04:35:41.699Z,1.30
2019-03-26T04:38:14.387Z,1.27
2019-03-26T04:40:47.132Z,1.27
2019-03-26T04:43:19.845Z,1.22
2019-03-26T04:45:52.617Z,1.17
2019-03-26T04:48:25.331Z,1.16
2019-03-26T04:50:58.031Z,1.11
2019-03-26T04:53:30.665Z,1.12
2019-03-26T04:56:03.550Z,1.20
2019-03-26T04:58:36.354Z,1.37
2019-03-26T05:01:09.081Z,1.50
2019-03-26T05:03:41.789Z,1.62
2019-03-26T05:06:14.538Z,1.82
2019-03-26T05:08:47.257Z,1.93
2019-03-26T05:11:20.036Z,2.00
2019-03-26T05:13:52.717Z,2.09
2019-03-26T05:16:25.436Z,2.09
2019-03-26T05:18:58.092Z,2.22
2019-03-26T05:21:30.917Z,2.29
2019-03-26T05:24:03.731Z,2.27
2019-03-26T05:26:36.493Z,2.35
2019-03-26T05:29:09.213Z,2.25
2019-03-26T05:31:42.060Z,2.45
2019-03-26T05:34:14.760Z,2.44
2019-03-26T05:36:51.610Z,2.51
2019-03-26T05:39:22.057Z,2.60
2019-03-26T05:41:54.767Z,2.64
2019-03-26T05:44:27.441Z,2.72
2019-03-26T05:47:01.680Z,2.71
2019-03-26T05:49:34.790Z,2.92
2019-03-26T05:52:07.572Z,2.94
2019-03-26T05:54:40.276Z,3.12
2019-03-26T05:57:12.983Z,3.15
2019-03-26T05:59:45.868Z,3.31
2019-03-26T06:02:18.621Z,3.35
2019-03-26T06:04:51.564Z,3.37
2019-03-26T06:07:24.860Z,3.42
2019-03-26T06:09:57.719Z,3.58
2019-03-26T06:12:30.468Z,3.72
2019-03-26T06:15:03.201Z,3.88
2019-03-26T06:17:35.824Z,3.77
2019-03-26T06:20:10.298Z,3.75
2019-03-26T06:22:42.973Z,3.75
2019-03-26T06:25:16.733Z,3.85
2019-03-26T06:27:49.436Z,4.27
2019-03-26T06:30:22.230Z,4.66
2019-03-26T06:32:54.964Z,4.85
2019-03-26T06:35:27.640Z,4.65
2019-03-26T06:38:00.436Z,4.79
2019-03-26T06:40:33.214Z,4.97
2019-03-26T06:43:05.980Z,4.79
2019-03-26T06:45:38.677Z,4.99
2019-03-26T06:48:11.364Z,4.57
2019-03-26T06:50:44.023Z,4.39
2019-03-26T06:53:16.744Z,4.30
2019-03-26T06:55:49.360Z,4.41
2019-03-26T06:58:22.238Z,5.17
2019-03-26T07:00:55.034Z,5.83
2019-03-26T07:03:27.744Z,6.00
2019-03-26T07:06:00.397Z,6.18
2019-03-26T07:08:33.075Z,6.21
2019-03-26T07:11:05.717Z,6.09
2019-03-26T07:13:38.655Z,5.98
2019-03-26T07:16:19.616Z,5.89
2019-03-26T07:18:52.498Z,5.84
2019-03-26T07:21:25.213Z,5.52
2019-03-26T07:23:57.978Z,5.11
2019-03-26T07:26:30.586Z,4.91
2019-03-26T07:29:03.277Z,4.66
2019-03-26T07:31:35.903Z,4.43
2019-03-26T07:34:08.584Z,4.29
2019-03-26T07:36:41.246Z,4.27
2019-03-26T07:39:13.948Z,4.12
2019-03-26T07:41:46.652Z,4.06
2019-03-26T07:44:19.354Z,4.15
2019-03-26T07:46:52.056Z,4.08
2019-03-26T07:49:24.916Z,4.22
2019-03-26T07:51:57.560Z,4.22
2019-03-26T07:54:32.528Z,4.12
2019-03-26T07:57:04.655Z,4.17
2019-03-26T07:59:37.408Z,4.14
2019-03-26T08:02:10.054Z,4.23
2019-03-26T08:04:42.778Z,4.28
2019-03-26T08:07:17.755Z,4.33
2019-03-26T08:09:50.610Z,4.36
2019-03-26T08:12:23.343Z,4.39
2019-03-26T08:14:56.066Z,4.52
2019-03-26T08:17:28.718Z,4.66
2019-03-26T08:20:01.370Z,4.83
2019-03-26T08:22:34.147Z,5.08
2019-03-26T08:25:08.172Z,5.14
2019-03-26T08:27:40.855Z,5.45
2019-03-26T08:30:13.816Z,5.78
2019-03-26T08:32:46.601Z,6.31
2019-03-26T08:35:19.275Z,6.72
2019-03-26T08:37:52.147Z,6.92
2019-03-26T08:40:24.896Z,7.12
2019-03-26T08:42:57.842Z,7.43
2019-03-26T08:45:30.601Z,7.27
2019-03-26T08:48:03.328Z,7.63
2019-03-26T08:50:36.026Z,7.61
2019-03-26T08:53:08.798Z,7.87
2019-03-26T08:55:41.431Z,8.13
2019-03-26T08:58:14.127Z,7.81
2019-03-26T09:00:46.906Z,7.63
2019-03-26T09:03:20.783Z,7.57
2019-03-26T09:05:53.539Z,7.48
2019-03-26T09:08:27.058Z,7.93
2019-03-26T09:10:59.919Z,8.15
2019-03-26T09:13:32.595Z,8.51
2019-03-26T09:16:05.323Z,8.35
2019-03-26T09:18:38.096Z,7.95
2019-03-26T09:21:10.754Z,8.38
2019-03-26T09:23:43.579Z,8.82
2019-03-26T09:26:16.325Z,8.95
2019-03-26T09:28:49.086Z,8.95
2019-03-26T09:31:21.807Z,8.88
2019-03-26T09:33:54.488Z,8.88
2019-03-26T09:36:27.127Z,8.73
2019-03-26T09:38:59.907Z,8.72
2019-03-26T09:41:32.511Z,8.66
2019-03-26T09:44:05.165Z,8.44
2019-03-26T09:46:37.854Z,8.07
2019-03-26T09:49:10.727Z,7.92
2019-03-26T09:51:43.348Z,7.90
2019-03-26T09:54:15.982Z,8.06
2019-03-26T09:56:48.651Z,7.85
2019-03-26T09:59:21.488Z,7.88
2019-03-26T10:01:54.231Z,8.61
2019-03-26T10:04:26.890Z,9.06
2019-03-26T10:06:59.727Z,9.22
2019-03-26T10:09:32.383Z,9.52
2019-03-26T10:12:05.196Z,9.37
2019-03-26T10:14:37.964Z,9.47
2019-03-26T10:17:10.660Z,9.15
2019-03-26T10:19:43.349Z,9.00
2019-03-26T10:22:16.190Z,9.09
2019-03-26T10:24:48.828Z,9.14
2019-03-26T10:27:21.454Z,9.19
2019-03-26T10:29:54.219Z,9.38
2019-03-26T10:32:27.122Z,9.56
2019-03-26T10:34:59.817Z,9.83
2019-03-26T10:37:32.563Z,9.74
2019-03-26T10:40:05.564Z,9.61
2019-03-26T10:42:38.252Z,10.23
2019-03-26T10:45:11.416Z,10.59
2019-03-26T10:47:44.106Z,9.91
2019-03-26T10:50:16.821Z,9.32
2019-03-26T10:52:49.512Z,9.23
2019-03-26T10:55:22.240Z,9.42
2019-03-26T10:57:54.920Z,9.43
2019-03-26T11:00:28.009Z,9.64
2019-03-26T11:03:00.757Z,9.40
2019-03-26T11:05:33.415Z,9.37
2019-03-26T11:08:06.061Z,9.09
2019-03-26T11:10:38.854Z,9.15
2019-03-26T11:13:11.519Z,9.29
2019-03-26T11:15:44.394Z,8.90
2019-03-26T11:18:17.107Z,8.69
2019-03-26T11:21:01.868Z,8.56
2019-03-26T11:23:24.366Z,8.57
2019-03-26T11:25:57.092Z,8.85
2019-03-26T11:28:29.823Z,9.06
2019-03-26T11:31:02.540Z,9.03
2019-03-26T11:33:54.360Z,9.40
2019-03-26T11:36:27.103Z,9.91
2019-03-26T11:38:59.755Z,9.90
2019-03-26T11:41:32.379Z,9.90
2019-03-26T11:44:05.194Z,10.06
2019-03-26T11:46:38.053Z,10.05
2019-03-26T11:49:10.733Z,9.88
2019-03-26T11:51:43.375Z,9.97
2019-03-26T11:54:16.042Z,9.95
2019-03-26T11:56:48.763Z,10.34
2019-03-26T11:59:21.438Z,9.96
2019-03-26T12:01:54.223Z,9.64
2019-03-26T12:04:26.932Z,9.36
2019-03-26T12:06:59.567Z,9.20
2019-03-26T12:09:45.247Z,8.95
2019-03-26T12:12:06.615Z,8.83
2019-03-26T12:14:39.315Z,8.74
2019-03-26T12:17:14.793Z,8.74
2019-03-26T12:19:46.378Z,8.78
2019-03-26T12:22:19.054Z,9.02
2019-03-26T12:24:51.655Z,9.31
2019-03-26T12:27:24.526Z,9.58
2019-03-26T12:29:57.261Z,9.56
2019-03-26T12:32:29.928Z,9.92
2019-03-26T12:35:02.658Z,10.67
2019-03-26T12:37:36.493Z,10.74
2019-03-26T12:40:09.846Z,10.75
2019-03-26T12:42:42.521Z,10.68
2019-03-26T12:45:15.398Z,10.81
2019-03-26T12:47:48.159Z,10.89
2019-03-26T12:50:20.924Z,11.18
2019-03-26T12:52:53.575Z,11.46
2019-03-26T12:55:26.202Z,11.35
2019-03-26T12:57:59.042Z,11.51
2019-03-26T13:00:35.506Z,11.30
2019-03-26T13:03:08.160Z,11.23
2019-03-26T13:05:40.868Z,10.85
2019-03-26T13:08:13.504Z,10.76
2019-03-26T13:10:53.438Z,10.98
2019-03-26T13:13:20.614Z,11.25
2019-03-26T13:15:53.365Z,11.26
2019-03-26T13:18:27.387Z,11.16
2019-03-26T13:21:00.184Z,10.63
2019-03-26T13:23:32.917Z,10.48
2019-03-26T13:26:05.581Z,10.40
2019-03-26T13:28:38.358Z,10.22
2019-03-26T13:31:11.077Z,9.91
2019-03-26T13:33:43.781Z,9.91
2019-03-26T13:36:16.481Z,9.93
2019-03-26T13:38:49.284Z,10.12
2019-03-26T13:41:21.920Z,10.12
2019-03-26T13:43:54.759Z,10.06
2019-03-26T13:46:27.395Z,10.08
2019-03-26T13:49:00.214Z,10.08
2019-03-26T13:51:32.972Z,10.18
2019-03-26T13:54:05.802Z,10.21
2019-03-26T13:56:38.554Z,10.26
2019-03-26T13:59:12.333Z,9.91
2019-03-26T14:01:45.032Z,9.80
2019-03-26T14:04:17.761Z,10.10
2019-03-26T14:06:52.536Z,10.32
2019-03-26T14:09:24.973Z,10.42
2019-03-26T14:11:57.889Z,10.47
2019-03-26T14:14:30.924Z,10.65
2019-03-26T14:20:11.569Z,10.32
2019-03-26T14:22:46.716Z,10.05
2019-03-26T14:25:19.531Z,10.03
2019-03-26T14:27:52.277Z,9.83
2019-03-26T14:30:39.598Z,9.70
2019-03-26T14:33:12.618Z,9.56
2019-03-26T14:35:45.442Z,9.48
2019-03-26T14:38:45.208Z,9.31
2019-03-26T14:41:18.010Z,9.08
2019-03-26T14:43:51.073Z,9.08
2019-03-26T14:46:23.799Z,9.05
2019-03-26T14:48:56.643Z,9.02
2019-03-26T14:51:29.561Z,8.95
2019-03-26T14:54:02.395Z,8.88
2019-03-26T14:56:35.033Z,8.81
2019-03-26T14:59:08.115Z,8.76
2019-03-26T15:01:41.486Z,8.70
2019-03-26T15:04:14.393Z,8.62
2019-03-26T15:06:51.316Z,8.64
2019-03-26T15:09:24.198Z,8.64
2019-03-26T15:12:05.769Z,8.60
2019-03-26T15:14:35.349Z,8.62
2019-03-26T15:17:11.193Z,8.86
2019-03-26T15:19:44.282Z,8.89
2019-03-26T15:22:18.250Z,8.85
2019-03-26T15:24:51.215Z,8.84
2019-03-26T15:27:25.574Z,8.81
2019-03-26T15:29:58.478Z,8.81
2019-03-26T15:32:38.261Z,9.05
2019-03-26T15:35:11.786Z,9.29
2019-03-26T15:38:51.230Z,9.38
2019-03-26T15:41:26.400Z,9.37
2019-03-26T15:44:13.988Z,9.49
2019-03-26T15:47:19.655Z,9.61
2019-03-26T15:50:36.909Z,9.80
2019-03-26T15:53:42.465Z,9.82
2019-03-26T15:56:20.641Z,9.87
2019-03-26T15:58:58.812Z,9.68
2019-03-26T16:06:43.609Z,9.57
2019-03-26T16:27:29.357Z,8.95
2019-03-26T16:30:08.172Z,8.77
2019-03-26T16:33:54.540Z,8.65
2019-03-26T16:39:12.965Z,8.45
2019-03-26T16:42:24.325Z,8.44
2019-03-26T16:45:06.148Z,8.35
2019-03-26T16:47:39.061Z,8.23
2019-03-26T16:51:03.487Z,7.96
2019-03-26T16:58:14.654Z,7.81
2019-03-26T17:01:18.045Z,7.74
2019-03-26T17:03:55.538Z,7.62
2019-03-26T17:06:39.735Z,7.54
2019-03-26T17:09:21.617Z,7.45
2019-03-26T17:12:02.978Z,7.31
2019-03-26T17:14:33.769Z,7.12
2019-03-26T17:17:23.285Z,7.15
2019-03-26T17:20:08.220Z,7.10
2019-03-26T17:22:45.322Z,6.89
2019-03-26T17:25:20.830Z,6.80
2019-03-26T17:27:56.072Z,6.85
2019-03-26T17:30:30.542Z,6.95
2019-03-26T17:33:03.271Z,6.93
2019-03-26T17:35:36.113Z,6.83
2019-03-26T17:38:10.160Z,6.71
2019-03-26T17:41:05.956Z,6.67
2019-03-26T17:46:39.540Z,6.62
2019-03-26T17:47:36.845Z,6.53
2019-03-26T17:50:24.193Z,6.44
2019-03-26T17:52:58.929Z,6.42
2019-03-26T17:55:32.242Z,6.34
2019-03-26T17:58:30.917Z,6.29
2019-03-26T18:01:04.043Z,6.27
2019-03-26T18:03:46.156Z,6.37
2019-03-26T18:06:18.023Z,6.29
2019-03-26T18:08:58.616Z,6.15
2019-03-26T18:11:34.971Z,6.24
2019-03-26T18:14:12.231Z,6.22
2019-03-26T18:16:45.285Z,6.26
2019-03-26T18:19:21.366Z,6.38
2019-03-26T18:21:57.747Z,6.45
2019-03-26T18:24:32.248Z,6.54
2019-03-26T18:27:05.527Z,6.55
2019-03-26T18:29:40.908Z,6.55
2019-03-26T18:32:20.657Z,6.55
2019-03-26T18:34:50.312Z,6.59
2019-03-26T18:37:26.521Z,6.62
2019-03-26T18:39:59.573Z,6.67
2019-03-26T18:42:43.302Z,6.66
2019-03-26T18:45:14.569Z,6.66
2019-03-26T18:47:47.343Z,6.75
2019-03-26T18:50:20.951Z,6.67
2019-03-26T18:53:01.694Z,6.60
2019-03-26T18:55:55.300Z,6.75
2019-03-26T18:58:30.810Z,6.67
2019-03-26T19:01:04.441Z,6.68
2019-03-26T19:03:38.248Z,6.64
2019-03-26T19:06:11.209Z,6.75
2019-03-26T19:08:46.148Z,6.76
2019-03-26T19:11:18.648Z,6.81
2019-03-26T19:13:51.552Z,6.70
2019-03-26T19:16:24.323Z,6.81
2019-03-26T19:18:57.148Z,6.80
2019-03-26T19:21:30.195Z,6.80
2019-03-26T19:24:05.792Z,6.77
2019-03-26T19:26:38.498Z,6.71
2019-03-26T19:29:11.403Z,6.74
2019-03-26T19:31:44.394Z,6.71
2019-03-26T19:34:17.396Z,6.79
2019-03-26T19:37:00.101Z,6.83
2019-03-26T19:39:33.173Z,6.80
2019-03-26T19:42:08.959Z,6.70
2019-03-26T19:44:42.219Z,6.68
2019-03-26T19:47:15.532Z,6.63
2019-03-26T19:49:52.615Z,6.60
2019-03-26T19:52:31.816Z,6.63
2019-03-26T19:55:06.879Z,6.54
2019-03-26T19:57:45.656Z,6.59
2019-03-26T20:00:18.250Z,6.56
2019-03-26T20:02:51.264Z,6.54
2019-03-26T20:05:25.520Z,6.52
2019-03-26T20:07:59.542Z,6.52
2019-03-26T20:10:32.471Z,6.52
2019-03-26T20:13:05.553Z,6.47
2019-03-26T20:15:39.034Z,6.43
2019-03-26T20:18:11.924Z,6.35
2019-03-26T20:20:45.042Z,6.29
2019-03-26T20:23:18.653Z,6.36
2019-03-26T20:25:51.613Z,6.34
2019-03-26T20:28:26.726Z,6.40
2019-03-26T20:30:59.594Z,6.40
2019-03-26T20:33:35.722Z,6.40
2019-03-26T20:36:09.102Z,6.43
2019-03-26T20:38:42.566Z,6.36
2019-03-26T20:41:15.569Z,6.33
2019-03-26T20:43:48.757Z,6.29
2019-03-26T20:46:21.839Z,6.20
2019-03-26T20:48:54.806Z,6.25
2019-03-26T20:51:28.094Z,6.20
2019-03-26T20:54:01.137Z,6.19
2019-03-26T20:56:35.110Z,6.22
2019-03-26T20:59:08.266Z,6.26
2019-03-26T21:01:41.564Z,6.19
2019-03-26T21:04:21.869Z,6.17
2019-03-26T21:06:55.088Z,6.31
2019-03-26T21:09:28.404Z,6.32
2019-03-26T21:12:01.849Z,6.31
2019-03-26T21:14:34.954Z,6.22
2019-03-26T21:17:08.514Z,6.20
2019-03-26T21:20:23.846Z,6.17
2019-03-26T21:22:57.007Z,6.24
2019-03-26T21:25:29.968Z,6.19
2019-03-26T21:28:02.758Z,6.22
2019-03-26T21:30:35.615Z,6.16
2019-03-26T21:33:08.486Z,6.17
2019-03-26T21:35:41.246Z,6.10
2019-03-26T21:38:13.995Z,6.10
2019-03-26T21:40:47.431Z,6.12
2019-03-26T21:43:20.411Z,6.14
2019-03-26T21:45:53.178Z,6.12
2019-03-26T21:48:25.872Z,6.10
2019-03-26T21:50:58.615Z,6.08
2019-03-26T21:53:32.445Z,6.11
2019-03-26T21:56:06.690Z,6.04
2019-03-26T21:58:39.959Z,5.99
2019-03-26T22:01:12.705Z,6.02
2019-03-26T22:03:45.433Z,5.95
2019-03-26T22:06:18.241Z,5.94
2019-03-26T22:08:50.953Z,5.88
2019-03-26T22:11:27.551Z,5.88
2019-03-26T22:14:17.403Z,5.96
2019-03-26T22:16:39.960Z,5.98
2019-03-26T22:19:27.516Z,5.91
2019-03-26T22:21:49.881Z,5.98
2019-03-26T22:24:23.342Z,5.94
2019-03-26T22:26:56.285Z,5.90
2019-03-26T22:29:29.005Z,5.93
2019-03-26T22:32:08.337Z,5.97
2019-03-26T22:34:42.990Z,5.98
2019-03-26T22:37:15.801Z,5.90
2019-03-26T22:39:48.771Z,5.91
2019-03-26T22:42:27.445Z,5.83
2019-03-26T22:45:00.802Z,5.84
2019-03-26T22:47:34.161Z,5.83
2019-03-26T22:50:08.455Z,5.80
2019-03-26T22:52:44.947Z,5.74
2019-03-26T22:55:17.855Z,5.74
2019-03-26T22:58:03.805Z,5.75
2019-03-26T23:00:44.131Z,5.74
2019-03-26T23:03:18.549Z,5.73
2019-03-26T23:05:51.496Z,5.75
2019-03-26T23:08:26.775Z,5.76
2019-03-26T23:10:59.567Z,5.74
2019-03-26T23:13:33.616Z,5.74
2019-03-26T23:16:09.769Z,5.71
2019-03-26T23:18:44.667Z,5.72
2019-03-26T23:21:20.335Z,5.67
2019-03-26T23:23:53.245Z,5.66
2019-03-26T23:26:33.547Z,5.64
2019-03-26T23:29:10.711Z,5.65
2019-03-26T23:31:43.645Z,5.58
2019-03-26T23:34:16.769Z,5.55
2019-03-26T23:36:51.161Z,5.56
2019-03-26T23:39:25.167Z,5.50
2019-03-26T23:41:57.920Z,5.51
2019-03-26T23:44:31.792Z,5.52
2019-03-26T23:47:04.857Z,5.50
2019-03-26T23:49:41.284Z,5.42
2019-03-26T23:52:18.735Z,5.33
2019-03-26T23:54:55.699Z,5.30
2019-03-26T23:57:28.397Z,5.19
